createdAt,value
2022-10-17T00:00:29.411Z,0.90
2022-10-17T00:02:55.963Z,0.95
2022-10-17T00:05:22.464Z,0.85
2022-10-17T00:07:48.659Z,0.80
2022-10-17T00:10:15.048Z,1.13
2022-10-17T00:12:41.187Z,1.02
2022-10-17T00:15:07.947Z,1.00
2022-10-17T00:17:35.011Z,1.20
2022-10-17T00:20:01.714Z,0.90
2022-10-17T00:22:28.346Z,0.90
2022-10-17T00:24:54.662Z,0.85
2022-10-17T00:27:21.244Z,0.80
2022-10-17T00:29:51.357Z,0.98
2022-10-17T00:32:18.542Z,1.20
2022-10-17T00:34:44.829Z,1.10
2022-10-17T00:37:11.251Z,1.02
2022-10-17T00:39:38.178Z,0.93
2022-10-17T00:42:04.732Z,1.00
2022-10-17T00:44:31.016Z,1.40
2022-10-17T00:46:58.927Z,0.90
2022-10-17T00:49:29.663Z,1.00
2022-10-17T00:51:59.455Z,1.25
2022-10-17T00:54:33.313Z,0.93
2022-10-17T00:57:00.321Z,0.90
2022-10-17T00:59:28.993Z,1.00
2022-10-17T01:02:07.875Z,1.02
2022-10-17T01:04:39.554Z,1.13
2022-10-17T01:07:05.762Z,0.90
2022-10-17T01:09:32.744Z,1.10
2022-10-17T01:12:30.688Z,1.00
2022-10-17T01:15:14.381Z,1.10
2022-10-17T01:18:00.990Z,1.02
2022-10-17T01:20:47.361Z,0.98
2022-10-17T01:23:54.819Z,1.20
2022-10-17T01:26:49.879Z,1.20
2022-10-17T01:29:50.743Z,1.17
2022-10-17T01:32:25.268Z,1.30
2022-10-17T01:34:59.515Z,1.00
2022-10-17T01:37:47.974Z,1.10
2022-10-17T01:40:32.818Z,1.20
2022-10-17T01:43:20.859Z,0.88
2022-10-17T01:45:56.807Z,1.05
2022-10-17T01:48:27.855Z,1.35
2022-10-17T01:51:03.285Z,1.02
2022-10-17T01:53:35.646Z,1.17
2022-10-17T01:56:04.093Z,1.20
2022-10-17T01:58:59.330Z,1.27
2022-10-17T02:01:28.785Z,1.10
2022-10-17T02:03:55.678Z,1.00
2022-10-17T02:06:21.991Z,0.98
2022-10-17T02:08:50.502Z,1.02
2022-10-17T02:11:18.430Z,1.08
2022-10-17T02:14:02.704Z,1.25
2022-10-17T02:16:41.525Z,1.00
2022-10-17T02:19:28.756Z,1.08
2022-10-17T02:21:54.909Z,1.27
2022-10-17T02:24:51.937Z,1.13
2022-10-17T02:27:39.311Z,1.00
2022-10-17T02:30:13.940Z,0.88
2022-10-17T02:32:52.403Z,1.20
2022-10-17T02:35:20.971Z,1.10
2022-10-17T02:37:48.184Z,1.02
2022-10-17T02:40:19.775Z,1.10
2022-10-17T02:42:46.301Z,1.17
2022-10-17T02:45:14.538Z,1.05
2022-10-17T02:47:58.465Z,1.20
2022-10-17T02:50:51.712Z,1.40
2022-10-17T02:53:27.511Z,1.25
2022-10-17T02:55:59.228Z,1.20
2022-10-17T02:58:32.619Z,1.10
2022-10-17T03:01:00.100Z,1.10
2022-10-17T03:03:30.360Z,1.17
2022-10-17T03:05:57.002Z,1.10
2022-10-17T03:08:23.803Z,0.80
2022-10-17T03:10:51.239Z,1.02
2022-10-17T03:13:17.752Z,1.10
2022-10-17T03:15:43.966Z,1.30
2022-10-17T03:18:10.203Z,1.30
2022-10-17T03:20:38.448Z,1.10
2022-10-17T03:23:04.553Z,1.30
2022-10-17T03:25:30.671Z,1.27
2022-10-17T03:28:01.106Z,1.08
2022-10-17T03:30:28.548Z,1.13
2022-10-17T03:32:54.743Z,1.00
2022-10-17T03:35:20.991Z,1.00
2022-10-17T03:37:47.239Z,1.20
2022-10-17T03:40:13.605Z,1.02
2022-10-17T03:42:39.842Z,1.50
2022-10-17T03:45:06.166Z,1.30
2022-10-17T03:47:32.734Z,1.20
2022-10-17T03:49:58.985Z,1.10
2022-10-17T03:52:25.055Z,1.08
2022-10-17T03:54:51.533Z,1.30
2022-10-17T03:57:18.947Z,1.10
2022-10-17T03:59:45.033Z,1.23
2022-10-17T04:02:11.317Z,1.10
2022-10-17T04:04:37.503Z,1.00
2022-10-17T04:07:03.634Z,1.15
2022-10-17T04:09:29.907Z,1.20
2022-10-17T04:11:56.007Z,1.23
2022-10-17T04:14:22.572Z,1.10
2022-10-17T04:16:49.055Z,1.10
2022-10-17T04:19:15.214Z,1.38
2022-10-17T04:21:41.334Z,1.25
2022-10-17T04:24:11.195Z,1.10
2022-10-17T04:26:37.533Z,1.02
2022-10-17T04:29:03.748Z,1.20
2022-10-17T04:31:29.840Z,1.10
2022-10-17T04:33:56.166Z,1.17
2022-10-17T04:36:22.911Z,1.13
2022-10-17T04:38:48.959Z,1.20
2022-10-17T04:41:18.188Z,1.10
2022-10-17T04:43:47.011Z,1.35
2022-10-17T04:46:16.486Z,1.05
2022-10-17T04:48:42.677Z,1.20
2022-10-17T04:51:14.825Z,0.90
2022-10-17T04:53:41.896Z,1.20
2022-10-17T04:56:17.397Z,1.42
2022-10-17T04:58:44.776Z,1.20
2022-10-17T05:01:16.654Z,1.10
2022-10-17T05:03:43.141Z,0.93
2022-10-17T05:06:13.643Z,1.00
2022-10-17T05:08:40.100Z,1.00
2022-10-17T05:11:14.523Z,1.23
2022-10-17T05:13:40.582Z,1.20
2022-10-17T05:16:06.895Z,1.10
2022-10-17T05:18:33.157Z,1.02
2022-10-17T05:20:59.322Z,1.33
2022-10-17T05:23:25.466Z,1.10
2022-10-17T05:25:55.407Z,1.30
2022-10-17T05:28:22.603Z,1.10
2022-10-17T05:30:50.089Z,1.13
2022-10-17T05:33:16.511Z,1.35
2022-10-17T05:35:42.639Z,1.23
2022-10-17T05:38:08.856Z,1.60
2022-10-17T05:40:35.131Z,1.10
2022-10-17T05:43:01.275Z,1.48
2022-10-17T05:45:27.378Z,1.15
2022-10-17T05:47:53.613Z,1.13
2022-10-17T05:50:21.375Z,1.30
2022-10-17T05:52:47.707Z,1.30
2022-10-17T05:55:13.870Z,1.48
2022-10-17T05:57:40.366Z,1.38
2022-10-17T06:00:07.210Z,1.40
2022-10-17T06:02:33.747Z,1.50
2022-10-17T06:05:00.059Z,1.83
2022-10-17T06:07:26.240Z,1.40
2022-10-17T06:09:52.469Z,1.38
2022-10-17T06:12:18.737Z,1.35
2022-10-17T06:14:44.968Z,1.30
2022-10-17T06:17:15.759Z,1.30
2022-10-17T06:19:43.843Z,1.40
2022-10-17T06:22:10.111Z,1.40
2022-10-17T06:24:36.208Z,1.48
2022-10-17T06:27:02.459Z,1.73
2022-10-17T06:29:28.783Z,1.65
2022-10-17T06:31:54.898Z,1.77
2022-10-17T06:34:20.988Z,1.80
2022-10-17T06:36:47.351Z,1.80
2022-10-17T06:39:13.524Z,1.60
2022-10-17T06:41:40.787Z,1.40
2022-10-17T06:44:12.990Z,1.50
2022-10-17T06:46:39.586Z,1.70
2022-10-17T06:49:06.079Z,1.45
2022-10-17T06:51:35.583Z,1.90
2022-10-17T06:54:01.715Z,2.00
2022-10-17T06:56:27.893Z,1.70
2022-10-17T06:58:54.159Z,1.73
2022-10-17T07:01:20.556Z,1.70
2022-10-17T07:03:49.563Z,1.70
2022-10-17T07:06:15.851Z,1.88
2022-10-17T07:08:44.045Z,2.00
2022-10-17T07:11:15.076Z,1.83
2022-10-17T07:13:41.611Z,1.55
2022-10-17T07:16:08.469Z,1.50
2022-10-17T07:18:34.856Z,1.77
2022-10-17T07:21:03.329Z,1.60
2022-10-17T07:23:29.684Z,2.05
2022-10-17T07:26:00.703Z,1.58
2022-10-17T07:28:28.204Z,1.40
2022-10-17T07:30:54.751Z,1.83
2022-10-17T07:33:20.845Z,1.90
2022-10-17T07:35:46.967Z,1.98
2022-10-17T07:38:13.178Z,1.98
2022-10-17T07:40:39.213Z,1.83
2022-10-17T07:43:05.337Z,1.85
2022-10-17T07:45:31.423Z,1.30
2022-10-17T07:47:58.870Z,1.70
2022-10-17T07:50:25.013Z,1.85
2022-10-17T07:52:51.125Z,1.60
2022-10-17T07:55:17.218Z,1.85
2022-10-17T07:57:43.892Z,1.63
2022-10-17T08:00:10.502Z,1.70
2022-10-17T08:02:36.585Z,2.00
2022-10-17T08:05:02.882Z,2.03
2022-10-17T08:07:30.001Z,1.95
2022-10-17T08:09:56.198Z,1.95
2022-10-17T08:12:22.289Z,1.63
2022-10-17T08:14:48.353Z,1.60
2022-10-17T08:17:14.622Z,1.70
2022-10-17T08:19:40.794Z,1.50
2022-10-17T08:22:08.092Z,1.50
2022-10-17T08:24:34.267Z,1.70
2022-10-17T08:27:00.644Z,1.52
2022-10-17T08:29:27.128Z,1.90
2022-10-17T08:31:58.506Z,1.55
2022-10-17T08:34:27.694Z,1.55
2022-10-17T08:36:53.856Z,1.73
2022-10-17T08:39:20.039Z,1.52
2022-10-17T08:41:59.114Z,1.52
2022-10-17T08:44:36.206Z,1.58
2022-10-17T08:47:05.535Z,1.67
2022-10-17T08:49:40.137Z,1.42
2022-10-17T08:52:27.003Z,1.80
2022-10-17T08:54:53.165Z,1.50
2022-10-17T08:57:19.449Z,1.38
2022-10-17T08:59:51.706Z,1.60
2022-10-17T09:02:43.127Z,1.67
2022-10-17T09:05:41.293Z,1.75
2022-10-17T09:08:34.592Z,1.40
2022-10-17T09:11:26.668Z,1.73
2022-10-17T09:14:44.310Z,1.35
2022-10-17T09:17:39.698Z,1.45
2022-10-17T09:20:19.409Z,1.88
2022-10-17T09:25:23.713Z,1.75
2022-10-17T09:27:55.453Z,1.50
2022-10-17T09:30:43.657Z,1.50
2022-10-17T09:33:28.526Z,1.60
2022-10-17T09:36:29.297Z,1.77
2022-10-17T09:38:58.202Z,1.35
2022-10-17T09:41:45.506Z,1.40
2022-10-17T09:44:30.779Z,1.60
2022-10-17T09:47:22.723Z,1.75
2022-10-17T09:49:49.975Z,1.60
2022-10-17T09:52:27.990Z,2.03
2022-10-17T09:55:01.170Z,1.30
2022-10-17T09:57:27.706Z,1.85
2022-10-17T10:00:03.582Z,1.90
2022-10-17T10:02:33.052Z,1.50
2022-10-17T10:05:17.726Z,1.40
2022-10-17T10:07:59.749Z,1.60
2022-10-17T10:10:28.119Z,1.42
2022-10-17T10:13:04.978Z,1.50
2022-10-17T10:15:35.565Z,1.60
2022-10-17T10:18:02.461Z,1.80
2022-10-17T10:20:30.442Z,1.20
2022-10-17T10:23:17.608Z,1.73
2022-10-17T10:25:58.230Z,1.70
2022-10-17T10:28:32.411Z,1.95
2022-10-17T10:31:06.809Z,1.65
2022-10-17T10:33:40.392Z,1.50
2022-10-17T10:36:09.200Z,1.50
2022-10-17T10:38:39.995Z,1.42
2022-10-17T10:41:10.637Z,1.50
2022-10-17T10:43:44.667Z,1.33
2022-10-17T10:46:20.498Z,1.27
2022-10-17T10:49:24.808Z,1.40
2022-10-17T10:51:51.679Z,1.60
2022-10-17T10:54:25.857Z,1.63
2022-10-17T10:57:00.075Z,1.52
2022-10-17T10:59:35.593Z,1.50
2022-10-17T11:02:14.891Z,1.55
2022-10-17T11:04:50.805Z,1.48
2022-10-17T11:07:22.090Z,1.20
2022-10-17T11:10:13.294Z,1.50
2022-10-17T11:13:02.932Z,1.50
2022-10-17T11:15:44.517Z,1.58
2022-10-17T11:18:45.853Z,1.30
2022-10-17T11:21:19.366Z,1.55
2022-10-17T11:23:59.575Z,1.45
2022-10-17T11:26:29.087Z,1.60
2022-10-17T11:29:07.231Z,1.65
2022-10-17T11:31:41.482Z,1.60
2022-10-17T11:34:20.228Z,1.50
2022-10-17T11:36:50.123Z,1.50
2022-10-17T11:39:21.331Z,1.70
2022-10-17T11:42:06.500Z,1.45
2022-10-17T11:44:36.504Z,1.20
2022-10-17T11:47:33.681Z,1.85
2022-10-17T11:51:59.852Z,1.60
2022-10-17T11:53:01.133Z,1.40
2022-10-17T11:55:30.090Z,1.48
2022-10-17T11:58:26.793Z,1.67
2022-10-17T12:01:29.852Z,1.50
2022-10-17T12:04:17.863Z,1.33
2022-10-17T12:07:10.266Z,1.42
2022-10-17T12:10:05.599Z,1.63
2022-10-17T12:12:37.606Z,1.50
2022-10-17T12:15:12.505Z,1.38
2022-10-17T12:17:46.277Z,1.33
2022-10-17T12:20:23.997Z,1.55
2022-10-17T12:22:55.550Z,1.83
2022-10-17T12:25:34.153Z,1.58
2022-10-17T12:28:12.720Z,1.25
2022-10-17T12:30:59.825Z,1.33
2022-10-17T12:33:36.983Z,1.25
2022-10-17T12:36:18.121Z,1.50
2022-10-17T12:38:50.012Z,1.30
2022-10-17T12:41:37.338Z,1.30
2022-10-17T12:44:12.311Z,1.40
2022-10-17T12:46:55.218Z,1.45
2022-10-17T12:49:41.649Z,1.20
2022-10-17T12:52:16.727Z,1.52
2022-10-17T12:55:14.700Z,1.50
2022-10-17T12:58:02.869Z,1.70
2022-10-17T13:01:05.149Z,1.35
2022-10-17T13:03:43.653Z,1.50
2022-10-17T13:06:20.425Z,1.30
2022-10-17T13:08:56.125Z,1.38
2022-10-17T13:11:27.479Z,1.30
2022-10-17T13:13:56.669Z,1.25
2022-10-17T13:16:34.047Z,1.50
2022-10-17T13:19:02.649Z,1.40
2022-10-17T13:21:29.314Z,1.50
2022-10-17T13:23:55.490Z,1.58
2022-10-17T13:26:25.416Z,1.50
2022-10-17T13:29:12.796Z,1.58
2022-10-17T13:31:41.764Z,1.35
2022-10-17T13:34:19.551Z,1.50
2022-10-17T13:36:59.526Z,1.55
2022-10-17T13:39:44.912Z,1.73
2022-10-17T13:42:30.140Z,1.52
2022-10-17T13:44:57.942Z,1.50
2022-10-17T13:47:29.957Z,1.80
2022-10-17T13:50:00.544Z,1.10
2022-10-17T13:52:29.334Z,1.30
2022-10-17T13:55:09.643Z,1.48
2022-10-17T13:57:35.826Z,1.90
2022-10-17T14:00:11.734Z,2.00
2022-10-17T14:02:40.775Z,1.40
2022-10-17T14:05:18.918Z,1.40
2022-10-17T14:10:41.519Z,1.40
2022-10-17T14:13:19.907Z,1.50
2022-10-17T14:15:46.564Z,1.67
2022-10-17T14:18:26.845Z,1.20
2022-10-17T14:23:43.015Z,1.45
2022-10-17T14:26:11.074Z,1.25
2022-10-17T14:28:39.381Z,1.40
2022-10-17T14:31:21.529Z,1.20
2022-10-17T14:33:50.873Z,1.00
2022-10-17T14:36:18.666Z,1.30
2022-10-17T14:38:51.247Z,1.33
2022-10-17T14:41:43.820Z,1.20
2022-10-17T14:44:23.479Z,1.08
2022-10-17T14:46:58.897Z,1.17
2022-10-17T14:49:40.310Z,1.35
2022-10-17T14:52:25.111Z,1.15
2022-10-17T14:54:51.704Z,1.40
2022-10-17T14:57:32.657Z,1.27
2022-10-17T14:59:58.788Z,1.60
2022-10-17T15:02:27.211Z,1.27
2022-10-17T15:04:54.119Z,1.67
2022-10-17T15:07:21.548Z,1.30
2022-10-17T15:09:50.190Z,1.40
2022-10-17T15:12:22.645Z,1.40
2022-10-17T15:14:49.925Z,1.23
2022-10-17T15:17:20.037Z,1.52
2022-10-17T15:19:46.846Z,1.50
2022-10-17T15:22:14.098Z,1.20
2022-10-17T15:24:40.262Z,1.20
2022-10-17T15:27:14.309Z,1.60
2022-10-17T15:29:40.424Z,1.30
2022-10-17T15:32:06.603Z,1.25
2022-10-17T15:34:32.748Z,1.10
2022-10-17T15:36:58.912Z,1.52
2022-10-17T15:39:25.331Z,1.42
2022-10-17T15:41:51.635Z,1.60
2022-10-17T15:44:17.744Z,1.45
2022-10-17T15:46:44.428Z,1.65
2022-10-17T15:49:13.289Z,1.70
2022-10-17T15:51:40.244Z,1.40
2022-10-17T15:54:06.422Z,1.55
2022-10-17T15:56:39.815Z,1.45
2022-10-17T15:59:17.254Z,1.58
2022-10-17T16:01:43.853Z,1.40
2022-10-17T16:04:14.030Z,1.40
2022-10-17T16:06:40.578Z,1.33
2022-10-17T16:09:06.809Z,1.30
2022-10-17T16:11:35.659Z,1.35
2022-10-17T16:14:21.026Z,1.05
2022-10-17T16:16:47.264Z,1.20
2022-10-17T16:19:13.403Z,1.40
2022-10-17T16:21:40.864Z,1.25
2022-10-17T16:24:12.249Z,1.40
2022-10-17T16:26:39.743Z,1.30
2022-10-17T16:29:05.919Z,1.30
2022-10-17T16:31:35.001Z,1.08
2022-10-17T16:34:03.246Z,1.52
2022-10-17T16:36:29.616Z,1.20
2022-10-17T16:38:55.733Z,1.20
2022-10-17T16:41:25.831Z,1.33
2022-10-17T16:43:53.743Z,1.30
2022-10-17T16:46:21.314Z,1.50
2022-10-17T16:48:48.798Z,1.30
2022-10-17T16:51:17.524Z,1.48
2022-10-17T16:53:44.367Z,1.45
2022-10-17T16:56:13.167Z,1.40
2022-10-17T16:58:40.498Z,1.40
2022-10-17T17:01:10.131Z,1.30
2022-10-17T17:03:37.789Z,1.65
2022-10-17T17:06:05.567Z,1.50
2022-10-17T17:08:38.393Z,1.20
2022-10-17T17:11:09.635Z,1.23
2022-10-17T17:13:36.438Z,1.27
2022-10-17T17:16:05.161Z,1.42
2022-10-17T17:18:31.604Z,1.20
2022-10-17T17:21:02.672Z,1.35
2022-10-17T17:23:29.789Z,1.27
2022-10-17T17:25:57.483Z,1.40
2022-10-17T17:28:25.427Z,1.30
2022-10-17T17:30:52.098Z,1.30
2022-10-17T17:33:18.200Z,1.50
2022-10-17T17:35:44.455Z,1.27
2022-10-17T17:38:10.561Z,1.58
2022-10-17T17:40:36.660Z,1.50
2022-10-17T17:43:02.703Z,1.45
2022-10-17T17:45:28.795Z,1.38
2022-10-17T17:47:55.060Z,1.20
2022-10-17T17:50:21.092Z,1.30
2022-10-17T17:52:50.018Z,1.20
2022-10-17T17:55:16.246Z,1.38
2022-10-17T17:57:42.293Z,1.10
2022-10-17T18:00:08.950Z,1.10
2022-10-17T18:02:35.118Z,1.08
2022-10-17T18:05:01.419Z,1.30
2022-10-17T18:07:27.478Z,0.90
2022-10-17T18:09:54.213Z,1.40
2022-10-17T18:12:20.729Z,1.00
2022-10-17T18:14:47.340Z,1.30
2022-10-17T18:17:13.461Z,1.38
2022-10-17T18:19:39.525Z,1.10
2022-10-17T18:22:05.804Z,1.10
2022-10-17T18:24:31.887Z,1.10
2022-10-17T18:26:59.374Z,1.27
2022-10-17T18:29:26.759Z,0.85
2022-10-17T18:31:52.872Z,1.27
2022-10-17T18:34:18.971Z,1.15
2022-10-17T18:36:45.120Z,1.30
2022-10-17T18:39:11.182Z,1.15
2022-10-17T18:41:37.406Z,1.30
2022-10-17T18:44:04.288Z,1.00
2022-10-17T18:46:40.014Z,1.30
2022-10-17T18:49:11.215Z,1.10
2022-10-17T18:51:37.301Z,1.25
2022-10-17T18:54:03.974Z,1.17
2022-10-17T18:56:31.057Z,1.00
2022-10-17T18:58:57.299Z,1.20
2022-10-17T19:01:26.770Z,1.02
2022-10-17T19:03:57.095Z,1.20
2022-10-17T19:06:30.937Z,1.23
2022-10-17T19:09:01.653Z,1.27
2022-10-17T19:11:29.770Z,1.08
2022-10-17T19:13:58.024Z,1.17
2022-10-17T19:16:30.711Z,1.17
2022-10-17T19:18:59.602Z,1.00
2022-10-17T19:21:26.331Z,1.17
2022-10-17T19:24:04.754Z,1.00
2022-10-17T19:26:34.340Z,1.30
2022-10-17T19:29:01.229Z,1.30
2022-10-17T19:31:31.013Z,1.02
2022-10-17T19:33:58.144Z,1.10
2022-10-17T19:36:30.400Z,1.08
2022-10-17T19:39:01.700Z,1.23
2022-10-17T19:41:28.120Z,1.35
2022-10-17T19:43:54.406Z,1.10
2022-10-17T19:46:22.881Z,1.20
2022-10-17T19:48:50.667Z,1.23
2022-10-17T19:51:18.818Z,1.10
2022-10-17T19:53:45.714Z,1.25
2022-10-17T19:56:12.385Z,1.40
2022-10-17T19:58:45.822Z,1.17
2022-10-17T20:01:17.753Z,1.10
2022-10-17T20:03:43.972Z,1.10
2022-10-17T20:06:10.441Z,1.05
2022-10-17T20:08:37.866Z,1.02
2022-10-17T20:11:10.482Z,1.30
2022-10-17T20:13:37.442Z,1.30
2022-10-17T20:16:05.452Z,0.95
2022-10-17T20:18:32.289Z,1.02
2022-10-17T20:21:10.153Z,1.20
2022-10-17T20:23:36.702Z,1.10
2022-10-17T20:26:08.724Z,1.40
2022-10-17T20:28:45.651Z,1.27
2022-10-17T20:31:12.652Z,0.95
2022-10-17T20:33:40.783Z,1.10
2022-10-17T20:36:09.065Z,1.00
2022-10-17T20:38:35.598Z,1.33
2022-10-17T20:41:03.669Z,0.90
2022-10-17T20:43:29.868Z,1.00
2022-10-17T20:46:03.522Z,1.20
2022-10-17T20:48:34.719Z,1.27
2022-10-17T20:51:07.084Z,1.25
2022-10-17T20:53:36.910Z,1.10
2022-10-17T20:56:18.110Z,1.20
2022-10-17T20:58:44.245Z,1.02
2022-10-17T21:01:10.647Z,1.00
2022-10-17T21:03:40.995Z,1.20
2022-10-17T21:06:10.524Z,1.02
2022-10-17T21:08:36.744Z,0.98
2022-10-17T21:11:07.284Z,1.02
2022-10-17T21:13:33.352Z,1.00
2022-10-17T21:16:07.465Z,1.02
2022-10-17T21:18:33.790Z,1.20
2022-10-17T21:21:10.584Z,1.00
2022-10-17T21:23:37.553Z,1.30
2022-10-17T21:26:05.276Z,0.85
2022-10-17T21:28:31.972Z,1.00
2022-10-17T21:31:13.644Z,1.00
2022-10-17T21:33:41.054Z,1.00
2022-10-17T21:36:08.455Z,1.00
2022-10-17T21:38:38.255Z,1.10
2022-10-17T21:41:05.913Z,1.00
2022-10-17T21:43:33.173Z,0.93
2022-10-17T21:46:04.661Z,1.15
2022-10-17T21:48:30.955Z,1.08
2022-10-17T21:50:59.398Z,0.90
2022-10-17T21:53:25.575Z,1.38
2022-10-17T21:55:51.749Z,1.02
2022-10-17T21:58:18.954Z,1.15
2022-10-17T22:00:45.020Z,1.17
2022-10-17T22:03:14.389Z,0.93
2022-10-17T22:05:40.832Z,1.20
2022-10-17T22:08:07.395Z,1.05
2022-10-17T22:10:36.786Z,1.20
2022-10-17T22:13:04.819Z,1.00
2022-10-17T22:15:31.382Z,0.95
2022-10-17T22:17:57.458Z,1.20
2022-10-17T22:20:23.563Z,1.23
2022-10-17T22:22:49.665Z,1.13
2022-10-17T22:25:15.753Z,0.95
2022-10-17T22:27:41.795Z,0.98
2022-10-17T22:30:08.706Z,1.10
2022-10-17T22:32:34.891Z,1.27
2022-10-17T22:35:00.942Z,1.13
2022-10-17T22:37:27.011Z,1.00
2022-10-17T22:39:53.195Z,0.88
2022-10-17T22:42:19.346Z,0.82
2022-10-17T22:44:45.952Z,1.20
2022-10-17T22:47:12.125Z,1.13
2022-10-17T22:49:38.198Z,1.10
2022-10-17T22:52:04.453Z,1.00
2022-10-17T22:54:30.561Z,1.17
2022-10-17T22:56:56.755Z,0.88
2022-10-17T22:59:22.975Z,1.00
2022-10-17T23:01:49.107Z,0.82
2022-10-17T23:04:15.195Z,1.15
2022-10-17T23:06:41.784Z,1.02
2022-10-17T23:09:08.066Z,1.13
2022-10-17T23:11:34.231Z,1.20
2022-10-17T23:14:00.332Z,1.08
2022-10-17T23:16:26.402Z,1.08
2022-10-17T23:18:54.288Z,1.30
2022-10-17T23:21:20.355Z,1.25
2022-10-17T23:23:46.496Z,1.00
2022-10-17T23:26:13.660Z,1.27
2022-10-17T23:28:40.982Z,0.80
2022-10-17T23:31:16.976Z,1.00
2022-10-17T23:33:44.338Z,1.05
2022-10-17T23:36:12.771Z,1.20
2022-10-17T23:38:40.004Z,1.00
2022-10-17T23:41:06.559Z,1.00
2022-10-17T23:43:33.618Z,0.80
2022-10-17T23:46:04.076Z,1.25
2022-10-17T23:48:30.306Z,1.13
2022-10-17T23:50:56.645Z,1.15
2022-10-17T23:53:23.525Z,0.80
2022-10-17T23:55:49.907Z,1.10
2022-10-17T23:58:16.490Z,1.02
